Humidity-temperature Sensor

Selected Measurement Type: Relative Humidity

 
Relative Humidity [%]     6 entries per hour
Showing data from 3/30/2015 (00:00:00 Z) to 3/29/2015 (00:01:00 Z)
Previous Next [ Day | 3-Days | 7-Days ]
First Last
Prev [ Day | 3-Days | 7-Days ] Next
First Last

Start Time:     :
End Time:     :     
Time (in GMT) :00 :50 :40 :30 :20 :10
Previous Next [ Day | 3-Days | 7-Days ]
First Last
Prev [ Day | 3-Days | 7-Days ] Next
First Last


123 => good data
MM => data is determined as missing
-- => data not received/configured
Back to Top Back to Top
3/30/2015 00:00 to 23:10 80.92 79.36 80.57 81.85 81.03 79.64
3/29/2015 23:00 to 22:10 80.62 80.92 80.98 80.77 79.60 81.59
3/29/2015 22:00 to 21:10 80.18 79.77 80.14 81.44 79.95 80.70
3/29/2015 21:00 to 20:10 80.79 80.38 80.46 79.92 79.04 80.77
3/29/2015 20:00 to 19:10 79.97 80.31 79.64 78.60 79.21 80.51
3/29/2015 19:00 to 18:10 80.46 80.46 79.88 80.88 81.59 81.07
3/29/2015 18:00 to 17:10 81.07 80.83 80.77 81.03 80.88 80.34
3/29/2015 17:00 to 16:10 80.01 77.78 77.76 79.75 80.55 80.27
3/29/2015 16:00 to 15:10 80.12 79.97 80.68 81.16 80.68 81.48
3/29/2015 15:00 to 14:10 81.48 80.88 80.85 81.31 80.83 82.33
3/29/2015 14:00 to 13:10 83.32 92.02 93.95 89.86 83.84 82.56
3/29/2015 13:00 to 12:10 81.76 81.37 81.18 82.39 82.43 83.63
3/29/2015 12:00 to 11:10 82.76 83.32 83.26 83.17 82.63 83.19
3/29/2015 11:00 to 10:10 83.26 83.24 83.43 82.22 81.55 81.70
3/29/2015 10:00 to 9:10 83.21 82.26 81.70 81.94 81.44 81.48
3/29/2015 09:00 to 8:10 81.48 81.27 82.43 81.20 80.44 81.81
3/29/2015 08:00 to 7:10 81.98 80.98 81.61 80.90 82.26 81.63
3/29/2015 07:00 to 6:10 78.93 80.01 80.64 81.61 81.27 81.11
3/29/2015 06:00 to 5:10 80.36 81.42 80.25 79.79 80.94 81.33
3/29/2015 05:00 to 4:10 80.75 81.33 81.27 81.68 81.01 80.66
3/29/2015 04:00 to 3:10 80.23 80.38 80.21 78.97 80.21 79.49
3/29/2015 03:00 to 2:10 79.43 81.61 81.70 80.36 81.29 80.31
3/29/2015 02:00 to 1:10 80.53 79.53 78.63 79.12 80.38 80.75
3/29/2015 01:00 to 0:10 80.51 81.63 81.14 82.35 81.53 81.85